Flight Track Log - Related Links

Times and Time Zones

All times are in EDT time to prevent confusion due to time zone crossing. See the GJS3649 flight status page for this flight to view local times or setup timezone preferences in your user account.

Time Position Orientation Groundspeed Altitude Reporting Facility
EDT Latitude Longitude Course Direction KTS MPH feet Rate Location/Type
Wed 12:21:25 PM 41.9667 -87.9667 360° North 184 212 2,400  Level Chicago TRACON
Wed 12:22:31 PM 42.0333 -87.9667 360° North 246 283 4,800 2,200 Climbing Chicago TRACON
Wed 12:23:25 PM 42.0833 -87.9167 37° Northeast 288 331 6,800 2,449 Climbing Chicago TRACON
Wed 12:24:09 PM 42.1033 -87.8531 67° East 285 328 8,800 2,717 Climbing Chicago Center
Wed 12:25:11 PM 42.1039 -87.7483 90° East 278 320 11,600 2,468 Climbing Chicago Center
Wed 12:26:13 PM 42.1044 -87.6392 90° East 288 331 13,900 1,694 Climbing Chicago Center
Wed 12:27:15 PM 42.1064 -87.5214 89° East 309 356 15,100 1,548 Climbing Chicago Center
Wed 12:28:17 PM 42.1081 -87.3658 89° East 344 396 17,100 1,790 Climbing Chicago Center
Wed 12:29:19 PM 42.1103 -87.2256 89° East 370 426 18,800 1,694 Climbing Chicago Center
Wed 12:30:21 PM 42.1119 -87.0822 89° East 381 438 20,600 1,742 Climbing Chicago Center
Wed 12:31:23 PM 42.1164 -86.9339 88° East 395 455 22,400 1,584 Climbing Chicago Center
Wed 12:32:26 PM 42.1219 -86.7817 87° East 407 468 23,900 1,440 Climbing Chicago Center
Wed 12:33:28 PM 42.1281 -86.6017 87° East 419 482 25,400 1,161 Climbing Chicago Center
Wed 12:34:30 PM 42.1336 -86.4381 87° East 433 498 26,300 871 Climbing Chicago Center
Wed 12:35:32 PM 42.1397 -86.2669 87° East 453 521 27,200 1,016 Climbing Chicago Center
Wed 12:36:34 PM 42.1447 -86.0914 88° East 466 536 28,400 1,403 Climbing Chicago Center
Wed 12:37:36 PM 42.1425 -85.8997 91° East 460 529 30,100 1,403 Climbing Chicago Center
Wed 12:38:38 PM 42.1411 -85.7314 91° East 454 522 31,300 1,016 Climbing Chicago Center
Wed 12:39:40 PM 42.1369 -85.5608 92° East 457 526 32,200 823 Climbing Chicago Center
Wed 12:40:42 PM 42.1364 -85.3875 90° East 463 533 33,000 774 Climbing Chicago Center
Wed 12:41:44 PM 42.1356 -85.2097 90° East 474 545 33,800 871 Climbing Chicago Center
Wed 12:42:46 PM 42.1333 -84.9936 91° East 482 555 34,800 871 Climbing Chicago Center
Wed 12:43:48 PM 42.1489 -84.8092 83° East 497 572 35,600 816 Climbing Chicago Center
Wed 12:44:51 PM 42.1653 -84.6278 83° East 493 567 36,500 864 Climbing Chicago Center
Wed 12:45:53 PM 42.1794 -84.4469 84° East 489 563 37,400 919 Climbing Chicago Center
Wed 12:46:55 PM 42.1942 -84.2692 84° East 482 555 38,400 774 Climbing Chicago Center
Wed 12:47:57 PM 42.2100 -84.0597 84° East 472 543 39,000 290 Climbing Chicago Center
Wed 12:48:59 PM 42.2242 -83.8828 84° East 475 547 39,000  Level Chicago Center
Wed 12:50:07 PM 42.2417 -83.6686 84° East 481 554 39,000  Level Cleveland Center
Wed 12:51:07 PM 42.2503 -83.4922 86° East 476 548 39,000  Level Cleveland Center
Wed 12:52:07 PM 42.2631 -83.3131 84° East 481 554 39,000  Level Cleveland Center
Wed 12:53:07 PM 42.2772 -83.1481 83° East 481 554 39,000  Level Cleveland Center
Wed 12:54:07 PM 42.2894 -82.9689 85° East 476 548 39,000  Level Cleveland Center
Wed 12:55:07 PM 42.3014 -82.7869 85° East 476 548 39,000  Level Cleveland Center
Wed 12:56:07 PM 42.3153 -82.6078 84° East 482 555 39,000  Level Cleveland Center
Wed 12:57:07 PM 42.3267 -82.4283 85° East 477 549 39,000  Level Cleveland Center
Wed 12:58:07 PM 42.3378 -82.2319 86° East 482 555 39,000  Level Cleveland Center
Wed 12:59:07 PM 42.3508 -82.0469 84° East 482 555 39,000  Level Cleveland Center
Wed 01:00:07 PM 42.3614 -81.8644 85° East 482 555 39,000  Level Cleveland Center
Wed 01:01:07 PM 42.3717 -81.6819 86° East 482 555 39,000  Level Cleveland Center
Wed 01:02:07 PM 42.3817 -81.4967 86° East 488 562 39,000  Level Cleveland Center
Wed 01:03:07 PM 42.3933 -81.3114 85° East 488 562 39,000  Level Cleveland Center
Wed 01:04:07 PM 42.4025 -81.1286 86° East 493 567 39,000  Level Cleveland Center
Wed 01:05:07 PM 42.4139 -80.9403 85° East 493 567 39,000  Level Cleveland Center
Wed 01:06:07 PM 42.4206 -80.7744 87° East 498 573 39,000  Level Cleveland Center
Wed 01:07:07 PM 42.4289 -80.5889 86° East 498 573 39,000  Level Cleveland Center
Wed 01:08:07 PM 42.4372 -80.4031 86° East 498 573 39,000  Level Cleveland Center
Wed 01:09:07 PM 42.4472 -80.2203 86° East 492 566 39,000  Level Cleveland Center
Wed 01:10:07 PM 42.4547 -80.0317 87° East 498 573 39,000  Level Cleveland Center
Wed 01:11:07 PM 42.4642 -79.8317 86° East 491 565 39,000  Level Cleveland Center
Wed 01:12:07 PM 42.4733 -79.6628 86° East 491 565 39,000  Level Cleveland Center
Wed 01:13:07 PM 42.4800 -79.4767 87° East 491 565 39,000  Level Cleveland Center
Wed 01:14:07 PM 42.4864 -79.2936 87° East 491 565 39,000  Level Cleveland Center
Wed 01:15:07 PM 42.4925 -79.1078 87° East 497 572 39,000  Level Cleveland Center
Wed 01:16:07 PM 42.4983 -78.9217 88° East 497 572 39,000  Level Cleveland Center
Wed 01:17:07 PM 42.5039 -78.7356 88° East 497 572 39,000  Level Cleveland Center
Wed 01:18:07 PM 42.5111 -78.5525 87° East 497 572 39,000  Level Cleveland Center
Wed 01:19:07 PM 42.5161 -78.3664 88° East 497 572 39,000  Level Cleveland Center
Wed 01:20:07 PM 42.5206 -78.1803 88° East 497 572 39,000  Level Cleveland Center
Wed 01:21:07 PM 42.5231 -77.9997 89° East 492 566 39,000  Level Cleveland Center
Wed 01:22:07 PM 42.5250 -77.8192 89° East 487 560 39,000  Level Cleveland Center
Wed 01:23:07 PM 42.5331 -77.6331 87° East 487 560 39,000 -497 Level Cleveland Center
Wed 01:24:56 PM 42.5394 -77.2708 89° East 499 574 37,600 -852 Descending Boston Center
Wed 01:25:56 PM 42.5450 -77.0881 88° East 493 567 36,600 -1,000 Descending Boston Center
Wed 01:26:56 PM 42.5464 -76.8964 89° East 493 567 35,600 -800 Descending Boston Center
Wed 01:27:56 PM 42.5497 -76.7047 89° East 498 573 35,000 -300 Descending Boston Center
Wed 01:28:56 PM 42.5503 -76.5189 90° East 498 573 35,000  Level Boston Center
Wed 01:29:56 PM 42.5439 -76.3378 93° East 493 567 35,000 -450 Level Boston Center
Wed 01:30:56 PM 42.5378 -76.1544 93° East 488 562 34,100 -950 Descending Boston Center
Wed 01:31:56 PM 42.5314 -75.9622 93° East 493 567 33,100 -1,000 Descending Boston Center
Wed 01:32:56 PM 42.5247 -75.7647 93° East 507 583 32,100 -1,100 Descending Boston Center
Wed 01:33:56 PM 42.5156 -75.5725 94° East 513 590 30,900 -1,350 Descending Boston Center
Wed 01:34:56 PM 42.5083 -75.3806 93° East 513 590 29,400 -1,600 Descending Boston Center
Wed 01:35:56 PM 42.5006 -75.1917 93° East 513 590 27,700 -1,850 Descending Boston Center
Wed 01:36:56 PM 42.4922 -75.0053 93° East 508 585 25,700 -2,050 Descending Boston Center
Wed 01:37:56 PM 42.4856 -74.8333 93° East 480 552 23,600 -2,100 Descending Boston Center
Wed 01:38:56 PM 42.4786 -74.6725 93° East 452 520 21,500 -1,900 Descending Boston Center
Wed 01:39:56 PM 42.4797 -74.5036 89° East 444 511 19,800 -1,550 Descending Boston Center
Wed 01:40:56 PM 42.4825 -74.3433 89° East 451 519 18,400 -900 Descending Boston Center
Wed 01:41:56 PM 42.4792 -74.1631 91° East 451 519 18,000 -450 Descending Boston Center
Wed 01:42:56 PM 42.4539 -74.0244 104° East 427 491 17,500 -900 Descending Boston Center
Wed 01:43:56 PM 42.4208 -73.8547 105° East 421 484 16,200 -1,208 Descending Boston Center
Wed 01:45:25 PM 42.3775 -73.6317 105° East 424 488 14,500 -1,182 Descending Boston Center
Wed 01:46:08 PM 42.3517 -73.5133 106° East 421 484 13,600 -1,165 Descending Boston Center
Wed 01:47:08 PM 42.3278 -73.3892 105° East 416 479 12,500 -1,200 Descending Boston Center
Wed 01:48:08 PM 42.2978 -73.2203 103° East 416 479 11,200 -1,033 Descending Boston Center
Wed 01:49:10 PM 42.2672 -73.0939 108° East 347 399 10,400 -927 Descending Boston Center
Wed 01:50:11 PM 42.2469 -72.9842 104° East 300 345 9,300 -1,230 Descending Boston Center
Wed 01:51:12 PM 42.2286 -72.8803 103° East 288 331 7,900 -1,525 Descending Boston Center
Wed 01:52:13 PM 42.2103 -72.7597 102° East 300 345 6,200 -1,770 Descending Boston Center
Wed 01:53:14 PM 42.1897 -72.6558 105° East 286 329 4,300 -1,033 Descending Boston Center
Wed 01:54:15 PM 42.1503 -72.5772 124° Southeast 252 290 4,100 -393 Descending Boston Center
Wed 01:55:16 PM 42.0961 -72.5381 152° Southeast 220 253 3,500 -738 Descending Boston Center
Wed 01:56:17 PM 42.0397 -72.5603 196° South 202 232 2,600 -793 Descending Boston Center
Wed 01:57:17 PM 42.0086 -72.5939 219° Southwest 144 166 1,900 -639 Descending Boston Center
Wed 01:58:19 PM 41.9833 -72.6300 227° Southwest 125 144 1,300 -581 Descending Boston Center

Login

Don't have an account? Register now (free) for customized features, flight alerts, and more!